sensor_id;sensor_type;location;lat;lon;timestamp;P1;durP1;ratioP1;P2;durP2;ratioP2
19038;SDS011;9652;49.014;12.052;2023-07-13T00:00:49;2.07;;;1.70;;
19038;SDS011;9652;49.014;12.052;2023-07-13T00:03:17;4.30;;;2.00;;
19038;SDS011;9652;49.014;12.052;2023-07-13T00:05:44;2.53;;;1.87;;
19038;SDS011;9652;49.014;12.052;2023-07-13T00:08:11;3.40;;;2.00;;
19038;SDS011;9652;49.014;12.052;2023-07-13T00:10:41;3.43;;;2.37;;
19038;SDS011;9652;49.014;12.052;2023-07-13T00:13:11;2.23;;;1.73;;
19038;SDS011;9652;49.014;12.052;2023-07-13T00:15:38;3.03;;;2.17;;
19038;SDS011;9652;49.014;12.052;2023-07-13T00:18:07;2.30;;;2.10;;
19038;SDS011;9652;49.014;12.052;2023-07-13T00:20:34;4.23;;;2.00;;
19038;SDS011;9652;49.014;12.052;2023-07-13T00:23:01;3.60;;;2.10;;
19038;SDS011;9652;49.014;12.052;2023-07-13T00:25:28;3.17;;;2.00;;
19038;SDS011;9652;49.014;12.052;2023-07-13T00:27:56;2.60;;;1.87;;
19038;SDS011;9652;49.014;12.052;2023-07-13T00:30:23;3.83;;;1.90;;
19038;SDS011;9652;49.014;12.052;2023-07-13T00:32:51;3.03;;;1.70;;
19038;SDS011;9652;49.014;12.052;2023-07-13T00:35:19;2.53;;;2.07;;
19038;SDS011;9652;49.014;12.052;2023-07-13T00:37:46;3.23;;;2.00;;
19038;SDS011;9652;49.014;12.052;2023-07-13T00:40:14;3.00;;;2.27;;
19038;SDS011;9652;49.014;12.052;2023-07-13T00:42:44;2.23;;;1.90;;
19038;SDS011;9652;49.014;12.052;2023-07-13T00:48:34;3.73;;;2.37;;
19038;SDS011;9652;49.014;12.052;2023-07-13T00:51:04;2.67;;;2.03;;
19038;SDS011;9652;49.014;12.052;2023-07-13T00:53:32;3.30;;;1.80;;
19038;SDS011;9652;49.014;12.052;2023-07-13T00:56:00;2.17;;;1.97;;
19038;SDS011;9652;49.014;12.052;2023-07-13T00:58:29;2.67;;;2.13;;
19038;SDS011;9652;49.014;12.052;2023-07-13T01:00:57;2.47;;;2.07;;
19038;SDS011;9652;49.014;12.052;2023-07-13T01:03:24;2.10;;;1.90;;
19038;SDS011;9652;49.014;12.052;2023-07-13T01:05:53;2.83;;;2.10;;
19038;SDS011;9652;49.014;12.052;2023-07-13T01:08:22;4.47;;;1.93;;
19038;SDS011;9652;49.014;12.052;2023-07-13T01:10:53;2.53;;;2.03;;
19038;SDS011;9652;49.014;12.052;2023-07-13T01:13:21;2.67;;;2.13;;
19038;SDS011;9652;49.014;12.052;2023-07-13T01:15:50;9.00;;;2.30;;
19038;SDS011;9652;49.014;12.052;2023-07-13T01:18:19;2.37;;;1.60;;
19038;SDS011;9652;49.014;12.052;2023-07-13T01:20:54;3.43;;;2.10;;
19038;SDS011;9652;49.014;12.052;2023-07-13T01:23:23;3.30;;;1.90;;
19038;SDS011;9652;49.014;12.052;2023-07-13T01:25:54;2.27;;;1.53;;
19038;SDS011;9652;49.014;12.052;2023-07-13T01:28:23;3.07;;;1.90;;
19038;SDS011;9652;49.014;12.052;2023-07-13T01:30:53;2.43;;;2.23;;
19038;SDS011;9652;49.014;12.052;2023-07-13T01:33:22;2.37;;;1.80;;
19038;SDS011;9652;49.014;12.052;2023-07-13T01:35:50;3.60;;;2.20;;
19038;SDS011;9652;49.014;12.052;2023-07-13T01:38:19;5.50;;;2.60;;
19038;SDS011;9652;49.014;12.052;2023-07-13T01:40:49;3.87;;;2.10;;
19038;SDS011;9652;49.014;12.052;2023-07-13T01:43:16;2.53;;;2.13;;
19038;SDS011;9652;49.014;12.052;2023-07-13T01:45:45;3.57;;;2.10;;
19038;SDS011;9652;49.014;12.052;2023-07-13T01:48:12;2.37;;;2.17;;
19038;SDS011;9652;49.014;12.052;2023-07-13T01:50:40;2.90;;;2.23;;
19038;SDS011;9652;49.014;12.052;2023-07-13T01:53:08;2.57;;;2.33;;
19038;SDS011;9652;49.014;12.052;2023-07-13T01:55:37;3.20;;;2.20;;
19038;SDS011;9652;49.014;12.052;2023-07-13T01:58:04;2.90;;;2.03;;
19038;SDS011;9652;49.014;12.052;2023-07-13T02:00:32;3.47;;;2.43;;
19038;SDS011;9652;49.014;12.052;2023-07-13T02:03:01;3.00;;;2.00;;
19038;SDS011;9652;49.014;12.052;2023-07-13T02:05:30;3.43;;;2.50;;
19038;SDS011;9652;49.014;12.052;2023-07-13T02:07:57;3.37;;;2.23;;
19038;SDS011;9652;49.014;12.052;2023-07-13T02:10:24;2.67;;;2.30;;
19038;SDS011;9652;49.014;12.052;2023-07-13T02:12:53;4.73;;;2.17;;
19038;SDS011;9652;49.014;12.052;2023-07-13T02:15:20;3.10;;;2.20;;
19038;SDS011;9652;49.014;12.052;2023-07-13T02:17:47;3.40;;;2.17;;
19038;SDS011;9652;49.014;12.052;2023-07-13T02:20:14;6.57;;;2.10;;
19038;SDS011;9652;49.014;12.052;2023-07-13T02:22:41;4.20;;;2.40;;
19038;SDS011;9652;49.014;12.052;2023-07-13T02:25:08;2.77;;;2.50;;
19038;SDS011;9652;49.014;12.052;2023-07-13T02:27:36;3.47;;;2.47;;
19038;SDS011;9652;49.014;12.052;2023-07-13T02:30:05;4.37;;;2.33;;
19038;SDS011;9652;49.014;12.052;2023-07-13T02:32:36;4.40;;;2.77;;
19038;SDS011;9652;49.014;12.052;2023-07-13T02:35:04;4.17;;;2.83;;
19038;SDS011;9652;49.014;12.052;2023-07-13T02:37:32;3.00;;;2.40;;
19038;SDS011;9652;49.014;12.052;2023-07-13T02:39:59;3.43;;;2.50;;
19038;SDS011;9652;49.014;12.052;2023-07-13T02:42:28;2.30;;;2.10;;
19038;SDS011;9652;49.014;12.052;2023-07-13T02:44:55;4.20;;;2.70;;
19038;SDS011;9652;49.014;12.052;2023-07-13T02:47:24;3.50;;;2.93;;
19038;SDS011;9652;49.014;12.052;2023-07-13T02:49:52;3.53;;;2.50;;
19038;SDS011;9652;49.014;12.052;2023-07-13T02:52:19;2.23;;;2.00;;
19038;SDS011;9652;49.014;12.052;2023-07-13T02:54:46;5.03;;;2.70;;
19038;SDS011;9652;49.014;12.052;2023-07-13T02:57:14;4.17;;;2.30;;
19038;SDS011;9652;49.014;12.052;2023-07-13T02:59:41;3.53;;;2.80;;
19038;SDS011;9652;49.014;12.052;2023-07-13T03:02:09;2.90;;;2.40;;
19038;SDS011;9652;49.014;12.052;2023-07-13T03:04:37;3.70;;;2.50;;
19038;SDS011;9652;49.014;12.052;2023-07-13T03:07:06;5.53;;;2.63;;
19038;SDS011;9652;49.014;12.052;2023-07-13T03:09:35;4.27;;;2.23;;
19038;SDS011;9652;49.014;12.052;2023-07-13T03:12:06;3.03;;;2.43;;
19038;SDS011;9652;49.014;12.052;2023-07-13T03:14:35;4.33;;;2.60;;
19038;SDS011;9652;49.014;12.052;2023-07-13T03:17:05;4.10;;;2.37;;
19038;SDS011;9652;49.014;12.052;2023-07-13T03:19:35;2.87;;;1.90;;
19038;SDS011;9652;49.014;12.052;2023-07-13T03:22:05;4.70;;;2.50;;
19038;SDS011;9652;49.014;12.052;2023-07-13T03:24:33;5.10;;;2.53;;
19038;SDS011;9652;49.014;12.052;2023-07-13T03:27:04;2.70;;;2.50;;
19038;SDS011;9652;49.014;12.052;2023-07-13T03:29:35;5.57;;;2.80;;
19038;SDS011;9652;49.014;12.052;2023-07-13T03:32:02;4.17;;;2.80;;
19038;SDS011;9652;49.014;12.052;2023-07-13T03:34:31;8.57;;;2.63;;
19038;SDS011;9652;49.014;12.052;2023-07-13T03:36:58;3.73;;;2.63;;
19038;SDS011;9652;49.014;12.052;2023-07-13T03:39:27;3.53;;;2.50;;
19038;SDS011;9652;49.014;12.052;2023-07-13T03:41:56;3.30;;;2.57;;
19038;SDS011;9652;49.014;12.052;2023-07-13T03:44:24;7.03;;;2.67;;
19038;SDS011;9652;49.014;12.052;2023-07-13T03:46:54;5.23;;;2.83;;
19038;SDS011;9652;49.014;12.052;2023-07-13T03:49:22;3.70;;;2.50;;
19038;SDS011;9652;49.014;12.052;2023-07-13T03:51:49;4.00;;;2.70;;
19038;SDS011;9652;49.014;12.052;2023-07-13T03:54:16;2.80;;;2.50;;
19038;SDS011;9652;49.014;12.052;2023-07-13T03:56:45;4.17;;;2.40;;
19038;SDS011;9652;49.014;12.052;2023-07-13T03:59:12;3.57;;;2.43;;
19038;SDS011;9652;49.014;12.052;2023-07-13T04:01:39;4.93;;;2.90;;
19038;SDS011;9652;49.014;12.052;2023-07-13T04:04:06;3.63;;;2.43;;
19038;SDS011;9652;49.014;12.052;2023-07-13T04:06:34;3.77;;;2.73;;
19038;SDS011;9652;49.014;12.052;2023-07-13T04:09:02;3.83;;;2.60;;
19038;SDS011;9652;49.014;12.052;2023-07-13T04:11:31;3.33;;;2.20;;
19038;SDS011;9652;49.014;12.052;2023-07-13T04:14:02;2.63;;;2.40;;
19038;SDS011;9652;49.014;12.052;2023-07-13T04:16:30;6.20;;;3.40;;
19038;SDS011;9652;49.014;12.052;2023-07-13T04:18:57;3.17;;;2.53;;
19038;SDS011;9652;49.014;12.052;2023-07-13T04:21:25;5.07;;;2.77;;
19038;SDS011;9652;49.014;12.052;2023-07-13T04:23:54;3.30;;;2.60;;
19038;SDS011;9652;49.014;12.052;2023-07-13T04:26:21;3.83;;;2.63;;
19038;SDS011;9652;49.014;12.052;2023-07-13T04:28:48;8.67;;;2.33;;
19038;SDS011;9652;49.014;12.052;2023-07-13T04:31:17;5.47;;;2.80;;
19038;SDS011;9652;49.014;12.052;2023-07-13T04:33:45;3.60;;;2.10;;
19038;SDS011;9652;49.014;12.052;2023-07-13T04:36:13;4.07;;;2.47;;
19038;SDS011;9652;49.014;12.052;2023-07-13T04:38:41;3.20;;;2.53;;
19038;SDS011;9652;49.014;12.052;2023-07-13T04:41:10;3.33;;;2.40;;
19038;SDS011;9652;49.014;12.052;2023-07-13T04:43:37;5.00;;;3.10;;
19038;SDS011;9652;49.014;12.052;2023-07-13T04:46:04;4.57;;;2.30;;
19038;SDS011;9652;49.014;12.052;2023-07-13T04:48:35;4.80;;;2.30;;
19038;SDS011;9652;49.014;12.052;2023-07-13T04:51:02;4.53;;;1.80;;
19038;SDS011;9652;49.014;12.052;2023-07-13T04:53:30;2.43;;;1.97;;
19038;SDS011;9652;49.014;12.052;2023-07-13T04:55:59;2.23;;;2.00;;
19038;SDS011;9652;49.014;12.052;2023-07-13T04:58:26;2.87;;;2.10;;
19038;SDS011;9652;49.014;12.052;2023-07-13T05:00:58;2.60;;;2.20;;
19038;SDS011;9652;49.014;12.052;2023-07-13T05:03:27;3.30;;;2.23;;
19038;SDS011;9652;49.014;12.052;2023-07-13T05:05:57;6.87;;;2.23;;
19038;SDS011;9652;49.014;12.052;2023-07-13T05:08:26;4.53;;;2.13;;
19038;SDS011;9652;49.014;12.052;2023-07-13T05:10:53;7.20;;;2.00;;
19038;SDS011;9652;49.014;12.052;2023-07-13T05:13:21;2.30;;;2.00;;
19038;SDS011;9652;49.014;12.052;2023-07-13T05:15:55;3.30;;;1.83;;
19038;SDS011;9652;49.014;12.052;2023-07-13T05:18:24;3.97;;;2.00;;
19038;SDS011;9652;49.014;12.052;2023-07-13T05:20:58;6.33;;;2.20;;
19038;SDS011;9652;49.014;12.052;2023-07-13T05:23:27;1.93;;;1.73;;
19038;SDS011;9652;49.014;12.052;2023-07-13T05:25:54;2.40;;;1.77;;
19038;SDS011;9652;49.014;12.052;2023-07-13T05:28:22;4.87;;;1.77;;
19038;SDS011;9652;49.014;12.052;2023-07-13T05:30:49;2.63;;;1.87;;
19038;SDS011;9652;49.014;12.052;2023-07-13T05:33:17;3.83;;;2.07;;
19038;SDS011;9652;49.014;12.052;2023-07-13T05:35:44;2.50;;;1.70;;
19038;SDS011;9652;49.014;12.052;2023-07-13T05:38:12;1.90;;;1.43;;
19038;SDS011;9652;49.014;12.052;2023-07-13T05:40:41;2.30;;;1.60;;
19038;SDS011;9652;49.014;12.052;2023-07-13T05:43:09;5.57;;;2.20;;
19038;SDS011;9652;49.014;12.052;2023-07-13T05:45:36;5.10;;;1.57;;
19038;SDS011;9652;49.014;12.052;2023-07-13T05:48:04;1.87;;;1.40;;
19038;SDS011;9652;49.014;12.052;2023-07-13T05:50:31;1.60;;;1.40;;
19038;SDS011;9652;49.014;12.052;2023-07-13T05:52:58;2.13;;;1.30;;
19038;SDS011;9652;49.014;12.052;2023-07-13T05:55:27;2.67;;;1.33;;
19038;SDS011;9652;49.014;12.052;2023-07-13T05:57:54;1.93;;;1.47;;
19038;SDS011;9652;49.014;12.052;2023-07-13T06:00:23;2.80;;;1.27;;
19038;SDS011;9652;49.014;12.052;2023-07-13T06:02:51;1.67;;;1.50;;
19038;SDS011;9652;49.014;12.052;2023-07-13T06:05:18;1.83;;;1.00;;
19038;SDS011;9652;49.014;12.052;2023-07-13T06:07:45;2.00;;;1.30;;
19038;SDS011;9652;49.014;12.052;2023-07-13T06:10:13;4.57;;;1.80;;
19038;SDS011;9652;49.014;12.052;2023-07-13T06:12:42;1.90;;;1.33;;
19038;SDS011;9652;49.014;12.052;2023-07-13T06:15:10;2.73;;;1.60;;
19038;SDS011;9652;49.014;12.052;2023-07-13T06:17:38;4.87;;;1.47;;
19038;SDS011;9652;49.014;12.052;2023-07-13T06:20:06;3.73;;;1.70;;
19038;SDS011;9652;49.014;12.052;2023-07-13T06:22:35;2.90;;;1.33;;
19038;SDS011;9652;49.014;12.052;2023-07-13T06:25:02;4.93;;;1.50;;
19038;SDS011;9652;49.014;12.052;2023-07-13T06:27:30;1.73;;;1.20;;
19038;SDS011;9652;49.014;12.052;2023-07-13T06:29:59;3.13;;;1.70;;
19038;SDS011;9652;49.014;12.052;2023-07-13T06:32:27;3.50;;;1.40;;
19038;SDS011;9652;49.014;12.052;2023-07-13T06:34:55;4.53;;;1.27;;
19038;SDS011;9652;49.014;12.052;2023-07-13T06:37:22;2.13;;;1.20;;
19038;SDS011;9652;49.014;12.052;2023-07-13T06:39:49;2.43;;;1.50;;
19038;SDS011;9652;49.014;12.052;2023-07-13T06:42:16;2.90;;;1.20;;
19038;SDS011;9652;49.014;12.052;2023-07-13T06:44:43;1.93;;;1.00;;
19038;SDS011;9652;49.014;12.052;2023-07-13T06:47:12;2.23;;;0.97;;
19038;SDS011;9652;49.014;12.052;2023-07-13T06:49:39;1.80;;;1.20;;
19038;SDS011;9652;49.014;12.052;2023-07-13T06:52:06;1.77;;;0.90;;
19038;SDS011;9652;49.014;12.052;2023-07-13T06:54:33;1.77;;;0.93;;
19038;SDS011;9652;49.014;12.052;2023-07-13T06:57:01;3.37;;;1.10;;
19038;SDS011;9652;49.014;12.052;2023-07-13T06:59:28;3.13;;;1.20;;
19038;SDS011;9652;49.014;12.052;2023-07-13T07:01:55;2.60;;;1.20;;
19038;SDS011;9652;49.014;12.052;2023-07-13T07:04:23;2.20;;;1.13;;
19038;SDS011;9652;49.014;12.052;2023-07-13T07:06:51;2.93;;;0.97;;
19038;SDS011;9652;49.014;12.052;2023-07-13T07:09:18;3.10;;;1.20;;
19038;SDS011;9652;49.014;12.052;2023-07-13T07:11:46;4.73;;;1.17;;
19038;SDS011;9652;49.014;12.052;2023-07-13T07:14:13;1.33;;;1.13;;
19038;SDS011;9652;49.014;12.052;2023-07-13T07:16:40;1.07;;;0.90;;
19038;SDS011;9652;49.014;12.052;2023-07-13T07:19:07;3.07;;;1.03;;
19038;SDS011;9652;49.014;12.052;2023-07-13T07:21:36;1.10;;;1.00;;
19038;SDS011;9652;49.014;12.052;2023-07-13T07:24:04;2.57;;;1.10;;
19038;SDS011;9652;49.014;12.052;2023-07-13T07:26:32;3.20;;;1.10;;
19038;SDS011;9652;49.014;12.052;2023-07-13T07:29:00;2.40;;;1.00;;
19038;SDS011;9652;49.014;12.052;2023-07-13T07:31:27;2.87;;;0.93;;
19038;SDS011;9652;49.014;12.052;2023-07-13T07:33:54;2.57;;;1.10;;
19038;SDS011;9652;49.014;12.052;2023-07-13T07:36:21;1.70;;;1.00;;
19038;SDS011;9652;49.014;12.052;2023-07-13T07:38:50;1.70;;;0.97;;
19038;SDS011;9652;49.014;12.052;2023-07-13T07:41:17;1.87;;;1.10;;
19038;SDS011;9652;49.014;12.052;2023-07-13T07:43:44;3.73;;;1.03;;
19038;SDS011;9652;49.014;12.052;2023-07-13T07:46:11;2.40;;;1.00;;
19038;SDS011;9652;49.014;12.052;2023-07-13T07:48:38;1.30;;;1.00;;
19038;SDS011;9652;49.014;12.052;2023-07-13T07:51:06;2.10;;;0.93;;
19038;SDS011;9652;49.014;12.052;2023-07-13T07:53:33;2.53;;;1.30;;
19038;SDS011;9652;49.014;12.052;2023-07-13T07:56:01;1.60;;;1.00;;
19038;SDS011;9652;49.014;12.052;2023-07-13T07:58:28;1.77;;;1.10;;
19038;SDS011;9652;49.014;12.052;2023-07-13T08:01:01;2.47;;;1.10;;
19038;SDS011;9652;49.014;12.052;2023-07-13T08:03:30;2.20;;;1.10;;
19038;SDS011;9652;49.014;12.052;2023-07-13T08:05:57;4.30;;;1.20;;
19038;SDS011;9652;49.014;12.052;2023-07-13T08:08:24;2.03;;;1.10;;
19038;SDS011;9652;49.014;12.052;2023-07-13T08:10:51;1.43;;;0.90;;
19038;SDS011;9652;49.014;12.052;2023-07-13T08:13:20;3.13;;;1.30;;
19038;SDS011;9652;49.014;12.052;2023-07-13T08:15:47;5.40;;;1.17;;
19038;SDS011;9652;49.014;12.052;2023-07-13T08:18:16;2.47;;;1.10;;
19038;SDS011;9652;49.014;12.052;2023-07-13T08:20:43;1.10;;;0.80;;
19038;SDS011;9652;49.014;12.052;2023-07-13T08:23:10;1.10;;;1.00;;
19038;SDS011;9652;49.014;12.052;2023-07-13T08:25:37;3.07;;;1.00;;
19038;SDS011;9652;49.014;12.052;2023-07-13T08:28:04;2.70;;;1.03;;
19038;SDS011;9652;49.014;12.052;2023-07-13T08:30:33;2.23;;;0.93;;
19038;SDS011;9652;49.014;12.052;2023-07-13T08:33:01;2.80;;;1.00;;
19038;SDS011;9652;49.014;12.052;2023-07-13T08:35:28;1.10;;;0.70;;
19038;SDS011;9652;49.014;12.052;2023-07-13T08:37:55;2.92;;;0.93;;
19038;SDS011;9652;49.014;12.052;2023-07-13T08:40:23;2.57;;;1.30;;
19038;SDS011;9652;49.014;12.052;2023-07-13T08:42:53;0.93;;;0.70;;
19038;SDS011;9652;49.014;12.052;2023-07-13T08:45:24;4.70;;;1.00;;
19038;SDS011;9652;49.014;12.052;2023-07-13T08:48:03;2.47;;;0.80;;
19038;SDS011;9652;49.014;12.052;2023-07-13T08:50:35;0.80;;;0.73;;
19038;SDS011;9652;49.014;12.052;2023-07-13T08:53:15;1.30;;;0.87;;
19038;SDS011;9652;49.014;12.052;2023-07-13T08:55:43;2.40;;;0.97;;
19038;SDS011;9652;49.014;12.052;2023-07-13T08:58:11;0.80;;;0.60;;
19038;SDS011;9652;49.014;12.052;2023-07-13T09:00:42;2.35;;;1.10;;
19038;SDS011;9652;49.014;12.052;2023-07-13T09:03:22;2.23;;;1.10;;
19038;SDS011;9652;49.014;12.052;2023-07-13T09:05:57;2.03;;;0.97;;
19038;SDS011;9652;49.014;12.052;2023-07-13T09:08:31;3.80;;;1.10;;
19038;SDS011;9652;49.014;12.052;2023-07-13T09:11:16;1.38;;;0.93;;
19038;SDS011;9652;49.014;12.052;2023-07-13T09:14:00;2.20;;;1.00;;
19038;SDS011;9652;49.014;12.052;2023-07-13T09:16:52;3.50;;;0.77;;
19038;SDS011;9652;49.014;12.052;2023-07-13T09:19:23;2.10;;;0.98;;
19038;SDS011;9652;49.014;12.052;2023-07-13T09:21:57;1.43;;;0.70;;
19038;SDS011;9652;49.014;12.052;2023-07-13T09:24:34;5.33;;;1.10;;
19038;SDS011;9652;49.014;12.052;2023-07-13T09:27:09;2.10;;;1.00;;
19038;SDS011;9652;49.014;12.052;2023-07-13T09:29:45;3.60;;;1.23;;
19038;SDS011;9652;49.014;12.052;2023-07-13T09:32:19;1.40;;;0.97;;
19038;SDS011;9652;49.014;12.052;2023-07-13T09:34:53;1.27;;;0.90;;
19038;SDS011;9652;49.014;12.052;2023-07-13T09:37:22;1.03;;;0.70;;
19038;SDS011;9652;49.014;12.052;2023-07-13T09:39:56;2.03;;;1.13;;
19038;SDS011;9652;49.014;12.052;2023-07-13T09:42:30;2.90;;;1.00;;
19038;SDS011;9652;49.014;12.052;2023-07-13T09:44:59;2.90;;;0.80;;
19038;SDS011;9652;49.014;12.052;2023-07-13T09:47:29;0.60;;;0.60;;
19038;SDS011;9652;49.014;12.052;2023-07-13T09:50:01;1.23;;;0.83;;
19038;SDS011;9652;49.014;12.052;2023-07-13T09:52:39;2.07;;;0.80;;
19038;SDS011;9652;49.014;12.052;2023-07-13T09:55:23;0.63;;;0.50;;
19038;SDS011;9652;49.014;12.052;2023-07-13T09:57:52;3.63;;;0.83;;
19038;SDS011;9652;49.014;12.052;2023-07-13T10:00:24;1.40;;;0.70;;
19038;SDS011;9652;49.014;12.052;2023-07-13T10:02:58;1.30;;;0.70;;
19038;SDS011;9652;49.014;12.052;2023-07-13T10:05:39;1.77;;;0.80;;
19038;SDS011;9652;49.014;12.052;2023-07-13T10:08:16;2.00;;;0.97;;
19038;SDS011;9652;49.014;12.052;2023-07-13T10:10:49;2.50;;;0.63;;
19038;SDS011;9652;49.014;12.052;2023-07-13T10:13:32;3.38;;;0.80;;
19038;SDS011;9652;49.014;12.052;2023-07-13T10:16:03;2.25;;;1.00;;
19038;SDS011;9652;49.014;12.052;2023-07-13T10:18:37;1.50;;;0.88;;
19038;SDS011;9652;49.014;12.052;2023-07-13T10:21:12;1.27;;;0.80;;
19038;SDS011;9652;49.014;12.052;2023-07-13T10:23:43;1.48;;;0.70;;
19038;SDS011;9652;49.014;12.052;2023-07-13T10:26:16;0.93;;;0.70;;
19038;SDS011;9652;49.014;12.052;2023-07-13T10:28:51;1.73;;;0.60;;
19038;SDS011;9652;49.014;12.052;2023-07-13T10:31:23;2.05;;;0.70;;
19038;SDS011;9652;49.014;12.052;2023-07-13T10:33:51;4.13;;;1.17;;
19038;SDS011;9652;49.014;12.052;2023-07-13T10:36:23;0.88;;;0.70;;
19038;SDS011;9652;49.014;12.052;2023-07-13T10:39:01;2.00;;;0.70;;
19038;SDS011;9652;49.014;12.052;2023-07-13T10:41:33;2.88;;;0.93;;
19038;SDS011;9652;49.014;12.052;2023-07-13T10:44:05;0.85;;;0.85;;
19038;SDS011;9652;49.014;12.052;2023-07-13T10:46:46;0.82;;;0.80;;
19038;SDS011;9652;49.014;12.052;2023-07-13T10:49:13;1.52;;;0.70;;
19038;SDS011;9652;49.014;12.052;2023-07-13T10:51:44;1.63;;;0.57;;
19038;SDS011;9652;49.014;12.052;2023-07-13T10:54:19;1.33;;;0.70;;
19038;SDS011;9652;49.014;12.052;2023-07-13T10:56:52;1.23;;;0.70;;
19038;SDS011;9652;49.014;12.052;2023-07-13T10:59:36;0.93;;;0.75;;
19038;SDS011;9652;49.014;12.052;2023-07-13T11:02:09;1.17;;;0.80;;
19038;SDS011;9652;49.014;12.052;2023-07-13T11:04:52;1.77;;;0.60;;
19038;SDS011;9652;49.014;12.052;2023-07-13T11:07:24;0.70;;;0.60;;
19038;SDS011;9652;49.014;12.052;2023-07-13T11:09:55;0.90;;;0.60;;
19038;SDS011;9652;49.014;12.052;2023-07-13T11:12:28;0.63;;;0.50;;
19038;SDS011;9652;49.014;12.052;2023-07-13T11:15:27;1.30;;;0.63;;
19038;SDS011;9652;49.014;12.052;2023-07-13T11:18:02;0.70;;;0.60;;
19038;SDS011;9652;49.014;12.052;2023-07-13T11:20:32;2.27;;;0.70;;
19038;SDS011;9652;49.014;12.052;2023-07-13T11:25:58;4.67;;;0.83;;
19038;SDS011;9652;49.014;12.052;2023-07-13T11:28:27;3.00;;;0.80;;
19038;SDS011;9652;49.014;12.052;2023-07-13T11:31:02;0.70;;;0.52;;
19038;SDS011;9652;49.014;12.052;2023-07-13T11:33:56;0.95;;;0.60;;
19038;SDS011;9652;49.014;12.052;2023-07-13T11:36:27;3.50;;;1.10;;
19038;SDS011;9652;49.014;12.052;2023-07-13T11:39:05;0.85;;;0.70;;
19038;SDS011;9652;49.014;12.052;2023-07-13T11:41:49;1.45;;;0.75;;
19038;SDS011;9652;49.014;12.052;2023-07-13T11:44:21;1.13;;;0.68;;
19038;SDS011;9652;49.014;12.052;2023-07-13T11:46:51;2.55;;;1.20;;
19038;SDS011;9652;49.014;12.052;2023-07-13T11:49:21;1.45;;;0.73;;
19038;SDS011;9652;49.014;12.052;2023-07-13T11:51:50;1.77;;;0.80;;
19038;SDS011;9652;49.014;12.052;2023-07-13T11:54:24;5.00;;;1.27;;
19038;SDS011;9652;49.014;12.052;2023-07-13T11:56:55;2.05;;;1.00;;
19038;SDS011;9652;49.014;12.052;2023-07-13T11:59:26;0.90;;;0.80;;
19038;SDS011;9652;49.014;12.052;2023-07-13T12:01:56;1.05;;;0.60;;
19038;SDS011;9652;49.014;12.052;2023-07-13T12:04:28;1.42;;;1.05;;
19038;SDS011;9652;49.014;12.052;2023-07-13T12:07:03;2.25;;;0.70;;
19038;SDS011;9652;49.014;12.052;2023-07-13T12:09:35;1.42;;;0.63;;
19038;SDS011;9652;49.014;12.052;2023-07-13T12:12:10;1.50;;;0.70;;
19038;SDS011;9652;49.014;12.052;2023-07-13T12:14:39;1.63;;;0.90;;
19038;SDS011;9652;49.014;12.052;2023-07-13T12:17:15;0.93;;;0.60;;
19038;SDS011;9652;49.014;12.052;2023-07-13T12:19:47;1.98;;;0.75;;
19038;SDS011;9652;49.014;12.052;2023-07-13T12:22:17;4.88;;;0.63;;
19038;SDS011;9652;49.014;12.052;2023-07-13T12:24:49;1.10;;;0.60;;
19038;SDS011;9652;49.014;12.052;2023-07-13T12:27:20;1.67;;;0.60;;
19038;SDS011;9652;49.014;12.052;2023-07-13T12:29:51;1.02;;;0.63;;
19038;SDS011;9652;49.014;12.052;2023-07-13T12:32:23;1.90;;;0.63;;
19038;SDS011;9652;49.014;12.052;2023-07-13T12:34:53;1.38;;;0.73;;
19038;SDS011;9652;49.014;12.052;2023-07-13T12:37:22;1.90;;;0.70;;
19038;SDS011;9652;49.014;12.052;2023-07-13T12:39:51;0.77;;;0.40;;
19038;SDS011;9652;49.014;12.052;2023-07-13T12:42:20;1.50;;;0.68;;
19038;SDS011;9652;49.014;12.052;2023-07-13T12:44:53;1.48;;;0.52;;
19038;SDS011;9652;49.014;12.052;2023-07-13T12:47:22;0.43;;;0.43;;
19038;SDS011;9652;49.014;12.052;2023-07-13T12:49:53;0.40;;;0.30;;
19038;SDS011;9652;49.014;12.052;2023-07-13T12:52:24;1.00;;;0.75;;
19038;SDS011;9652;49.014;12.052;2023-07-13T12:55:02;1.30;;;0.80;;
19038;SDS011;9652;49.014;12.052;2023-07-13T12:57:40;0.60;;;0.60;;
19038;SDS011;9652;49.014;12.052;2023-07-13T13:00:24;0.77;;;0.60;;
19038;SDS011;9652;49.014;12.052;2023-07-13T13:02:58;1.38;;;0.70;;
19038;SDS011;9652;49.014;12.052;2023-07-13T13:05:35;1.33;;;0.80;;
19038;SDS011;9652;49.014;12.052;2023-07-13T13:08:03;2.53;;;0.70;;
19038;SDS011;9652;49.014;12.052;2023-07-13T13:10:32;1.45;;;0.52;;
19038;SDS011;9652;49.014;12.052;2023-07-13T13:13:01;2.33;;;0.85;;
19038;SDS011;9652;49.014;12.052;2023-07-13T13:15:28;2.03;;;0.80;;
19038;SDS011;9652;49.014;12.052;2023-07-13T13:17:56;1.73;;;0.70;;
19038;SDS011;9652;49.014;12.052;2023-07-13T13:20:24;0.60;;;0.52;;
19038;SDS011;9652;49.014;12.052;2023-07-13T13:22:52;0.95;;;0.63;;
19038;SDS011;9652;49.014;12.052;2023-07-13T13:25:20;1.45;;;0.57;;
19038;SDS011;9652;49.014;12.052;2023-07-13T13:27:49;2.38;;;0.50;;
19038;SDS011;9652;49.014;12.052;2023-07-13T13:30:17;0.75;;;0.52;;
19038;SDS011;9652;49.014;12.052;2023-07-13T13:32:45;1.48;;;0.70;;
19038;SDS011;9652;49.014;12.052;2023-07-13T13:35:15;1.25;;;0.60;;
19038;SDS011;9652;49.014;12.052;2023-07-13T13:37:44;0.98;;;0.70;;
19038;SDS011;9652;49.014;12.052;2023-07-13T13:40:16;1.02;;;0.60;;
19038;SDS011;9652;49.014;12.052;2023-07-13T13:42:45;1.00;;;0.60;;
19038;SDS011;9652;49.014;12.052;2023-07-13T13:45:14;1.25;;;0.60;;
19038;SDS011;9652;49.014;12.052;2023-07-13T13:47:43;2.60;;;0.52;;
19038;SDS011;9652;49.014;12.052;2023-07-13T13:50:12;1.30;;;0.63;;
19038;SDS011;9652;49.014;12.052;2023-07-13T13:52:41;1.42;;;0.60;;
19038;SDS011;9652;49.014;12.052;2023-07-13T13:55:12;1.95;;;0.80;;
19038;SDS011;9652;49.014;12.052;2023-07-13T13:57:40;1.08;;;0.60;;
19038;SDS011;9652;49.014;12.052;2023-07-13T14:00:08;1.17;;;0.60;;
19038;SDS011;9652;49.014;12.052;2023-07-13T14:02:41;1.88;;;0.85;;
19038;SDS011;9652;49.014;12.052;2023-07-13T14:05:21;2.17;;;1.05;;
19038;SDS011;9652;49.014;12.052;2023-07-13T14:07:51;1.23;;;0.40;;
19038;SDS011;9652;49.014;12.052;2023-07-13T14:10:19;1.52;;;0.70;;
19038;SDS011;9652;49.014;12.052;2023-07-13T14:12:47;0.60;;;0.50;;
19038;SDS011;9652;49.014;12.052;2023-07-13T14:15:20;0.63;;;0.50;;
19038;SDS011;9652;49.014;12.052;2023-07-13T14:17:51;1.38;;;0.60;;
19038;SDS011;9652;49.014;12.052;2023-07-13T14:20:19;0.98;;;0.50;;
19038;SDS011;9652;49.014;12.052;2023-07-13T14:22:50;1.02;;;0.57;;
19038;SDS011;9652;49.014;12.052;2023-07-13T14:25:20;1.13;;;0.70;;
19038;SDS011;9652;49.014;12.052;2023-07-13T14:27:48;0.90;;;0.80;;
19038;SDS011;9652;49.014;12.052;2023-07-13T14:30:21;1.27;;;0.68;;
19038;SDS011;9652;49.014;12.052;2023-07-13T14:32:49;0.63;;;0.40;;
19038;SDS011;9652;49.014;12.052;2023-07-13T14:35:20;0.95;;;0.60;;
19038;SDS011;9652;49.014;12.052;2023-07-13T14:37:49;1.25;;;0.43;;
19038;SDS011;9652;49.014;12.052;2023-07-13T14:40:19;1.33;;;0.55;;
19038;SDS011;9652;49.014;12.052;2023-07-13T14:42:56;1.27;;;0.50;;
19038;SDS011;9652;49.014;12.052;2023-07-13T14:45:23;0.40;;;0.30;;
19038;SDS011;9652;49.014;12.052;2023-07-13T14:47:52;1.50;;;0.50;;
19038;SDS011;9652;49.014;12.052;2023-07-13T14:50:30;1.42;;;0.80;;
19038;SDS011;9652;49.014;12.052;2023-07-13T14:53:00;0.40;;;0.40;;
19038;SDS011;9652;49.014;12.052;2023-07-13T14:55:27;1.42;;;0.65;;
19038;SDS011;9652;49.014;12.052;2023-07-13T14:57:54;0.90;;;0.50;;
19038;SDS011;9652;49.014;12.052;2023-07-13T15:00:22;1.60;;;0.63;;
19038;SDS011;9652;49.014;12.052;2023-07-13T15:02:51;0.77;;;0.60;;
19038;SDS011;9652;49.014;12.052;2023-07-13T15:05:23;1.00;;;0.57;;
19038;SDS011;9652;49.014;12.052;2023-07-13T15:07:53;0.88;;;0.47;;
19038;SDS011;9652;49.014;12.052;2023-07-13T15:10:20;0.77;;;0.55;;